Date,TemperatureHighF,TemperatureAvgF,TemperatureLowF,DewpointHighF,DewpointAvgF,DewpointLowF,HumidityHigh,HumidityAvg,HumidityLow,PressureMaxIn,PressureMinIn,WindSpeedMaxMPH,WindSpeedAvgMPH,GustSpeedMaxMPH,PrecipitationSumIn
2013-1-1,47,44,40,46,36,19,97,76,39,30.23,30.06,4,0,5,0.24
2013-1-2,44,38,35,43,36,33,98,95,90,30.26,30.02,3,1,6,0.03
2013-1-3,38,34,28,37,32,24,100,92,79,30.42,30.22,4,1,6,0.01
2013-1-4,41,30,25,26,23,21,90,75,47,30.53,30.41,4,2,10,0.00
2013-1-5,47,35,27,30,23,18,78,61,39,30.55,30.36,5,2,8,0.00
2013-1-6,47,38,33,38,33,28,94,81,69,30.35,30.18,4,2,6,0.00
2013-1-7,51,38,30,30,27,25,89,68,37,30.53,30.34,7,2,8,0.00
2013-1-8,53,41,32,44,34,27,94,78,65,30.56,30.45,4,2,8,0.00
2013-1-9,55,50,44,52,49,42,99,94,86,30.57,30.49,3,0,5,0.00
2013-1-10,62,55,52,53,51,49,95,87,71,30.58,30.44,2,1,5,0.00
2013-1-11,57,55,51,57,55,51,99,99,99,30.28,30.22,5,3,10,0.56
2013-1-12,68,61,57,61,58,56,99,92,77,30.25,30.14,7,2,16,0.01
2013-1-13,65,60,58,58,56,54,97,86,74,30.17,30.08,9,4,16,0.08
2013-1-14,59,55,44,58,54,43,99,98,92,30.23,30.08,6,3,8,1.01
2013-1-15,51,48,43,51,47,43,99,99,98,30.21,30.12,5,1,8,1.35
2013-1-16,54,50,44,54,50,44,100,100,98,30.13,30.04,5,1,8,0.37
2013-1-17,51,42,31,51,41,29,99,98,90,30.32,29.87,6,2,9,1.97
2013-1-18,47,36,27,28,24,17,90,64,34,30.64,30.32,4,1,7,0.00
2013-1-19,53,39,30,32,27,21,83,62,30,30.60,30.29,5,2,7,0.00
2013-1-20,55,43,36,35,29,21,73,57,41,30.29,30.17,5,2,7,0.00
2013-1-21,50,40,30,30,24,13,73,54,34,30.20,30.07,4,2,9,0.00
2013-1-22,32,24,19,15,5,-2,64,45,26,30.41,30.12,4,2,10,0.00
2013-1-23,42,30,19,24,14,3,66,52,41,30.50,30.23,3,1,5,0.00
2013-1-24,40,33,21,29,16,4,70,51,32,30.54,30.14,5,2,11,0.00
2013-1-25,35,25,20,34,19,5,98,77,51,30.57,30.24,9,3,15,0.01
2013-1-26,46,37,30,34,29,26,98,73,47,30.47,30.30,3,1,5,0.01
2013-1-27,42,33,28,31,28,26,95,81,63,30.63,30.47,6,1,9,0.01
2013-1-28,62,48,35,49,41,30,88,77,58,30.57,30.33,5,2,8,0.00
2013-1-29,68,56,48,57,50,43,97,80,53,30.34,30.06,7,2,14,0.17
2013-1-30,60,56,43,59,55,41,98,95,90,30.06,29.52,11,6,21,2.27
2013-1-31,43,36,28,41,23,18,94,61,41,30.13,29.58,8,4,14,0.00
2013-2-1,40,27,19,31,15,8,91,59,46,30.49,30.04,13,4,17,0.01
2013-2-2,40,29,19,31,19,10,93,68,35,30.50,30.18,6,2,9,0.00
2013-2-3,44,35,26,32,25,21,91,70,40,30.18,30.00,7,3,13,0.00
2013-2-4,49,35,23,27,22,19,84,62,35,30.27,30.12,7,2,9,0.00
2013-2-5,56,46,37,37,28,23,65,52,36,30.12,30.02,6,1,9,0.00
2013-2-6,57,46,35,36,29,23,84,54,28,30.32,30.10,4,1,5,0.00
2013-2-7,45,41,37,40,31,22,98,71,40,30.34,30.10,2,0,5,0.37
2013-2-8,41,39,32,40,37,27,98,95,82,30.24,30.03,4,1,5,0.02
2013-2-9,56,41,28,26,18,2,85,49,12,30.46,30.20,5,2,12,0.00
2013-2-10,50,42,37,44,28,20,98,60,40,30.47,30.26,6,2,9,0.46
2013-2-11,55,50,45,53,44,29,99,82,45,30.27,30.09,7,2,9,0.05
2013-2-12,50,43,37,37,29,24,92,59,41,30.21,30.03,4,1,9,0.11
2013-2-13,52,39,32,45,36,29,99,89,59,30.03,29.75,7,2,13,0.26
2013-2-14,52,38,30,34,29,27,92,72,42,30.18,30.01,5,1,8,0.00
2013-2-15,55,42,32,38,30,26,91,65,32,30.20,30.05,7,2,12,0.00
2013-2-16,32,28,20,29,22,10,92,77,54,30.15,29.96,7,3,13,0.00
2013-2-17,34,26,18,11,8,4,65,49,28,30.42,30.14,8,4,16,0.00
2013-2-18,50,35,25,25,18,10,58,50,36,30.51,30.28,9,2,11,0.00
2013-2-19,52,41,33,42,30,20,98,69,36,30.29,29.99,8,4,14,0.08
2013-2-20,43,36,27,13,10,7,51,35,23,30.28,30.18,5,2,7,0.00
2013-2-21,58,40,26,34,16,4,90,41,13,30.35,30.21,4,1,6,0.25
2013-2-22,38,35,32,37,34,31,99,97,90,30.37,30.21,4,2,8,0.32
2013-2-23,51,45,36,50,44,35,99,96,82,30.22,29.94,3,0,6,0.13
2013-2-24,54,44,35,42,32,24,97,68,35,30.14,29.96,4,2,7,0.00
2013-2-25,44,38,32,30,26,23,95,63,51,30.24,30.10,3,1,7,0.01
2013-2-26,39,34,31,39,34,30,99,98,90,30.13,29.70,4,1,9,1.32
2013-2-27,55,42,33,39,32,23,93,69,32,29.92,29.78,7,2,9,0.00
2013-2-28,39,35,32,31,26,23,81,70,56,29.92,29.82,9,3,12,0.00
2013-3-1,36,33,29,30,28,26,91,81,70,30.08,30.02,4,2,7,0.00
2013-3-2,38,31,24,29,26,21,94,82,54,30.08,29.98,5,2,9,0.02
2013-3-3,32,25,20,21,17,15,91,73,55,30.17,30.05,5,3,9,0.00
2013-3-4,50,35,22,25,18,15,78,52,28,30.31,30.14,6,2,9,0.00
2013-3-5,47,42,34,46,33,25,98,70,49,30.20,29.74,7,2,15,0.61
2013-3-6,34,29,25,27,23,20,92,80,63,30.32,29.76,9,4,16,0.00
2013-3-7,41,31,26,30,26,23,93,82,64,30.42,30.28,7,4,11,0.00
2013-3-8,51,36,25,26,22,12,91,62,22,30.49,30.40,5,2,10,0.00
2013-3-9,60,46,34,30,25,14,72,44,25,30.46,30.34,4,1,6,0.00
2013-3-10,63,52,44,36,32,28,55,47,31,30.36,30.22,6,2,11,0.00
2013-3-11,52,49,46,51,46,35,98,91,56,30.23,29.92,8,3,12,0.78
2013-3-12,51,43,36,50,38,31,99,86,58,30.15,29.86,6,3,8,0.21
2013-3-13,45,37,28,32,24,18,85,60,37,30.28,30.14,6,3,11,0.00
2013-3-14,45,32,22,19,15,12,71,53,30,30.43,30.28,4,2,8,0.00
2013-3-15,66,47,30,41,29,16,80,53,26,30.36,30.06,8,2,11,0.00
2013-3-16,74,63,55,45,42,39,59,47,29,30.05,29.81,9,6,16,0.00
2013-3-17,70,61,46,48,45,43,89,58,39,30.03,29.88,8,3,13,0.00
2013-3-18,46,40,36,44,39,35,99,97,90,30.11,29.95,4,2,7,0.36
2013-3-19,56,45,36,43,30,15,99,62,24,30.18,29.98,7,2,12,0.01
2013-3-20,52,40,31,30,13,3,93,36,13,30.21,29.93,8,2,11,0.00
2013-3-21,36,28,19,28,16,11,93,62,37,30.11,29.88,6,2,9,0.04
2013-3-22,46,33,23,23,16,11,66,49,33,30.20,30.11,4,1,5,0.00
2013-3-23,56,43,36,44,34,22,91,72,50,30.17,29.98,3,1,5,0.04
2013-3-24,43,39,36,41,38,36,100,96,88,30.03,29.62,3,1,6,0.75
2013-3-25,37,32,29,37,24,19,99,72,55,30.04,29.64,8,4,12,0.03
2013-3-26,37,30,25,27,23,20,89,78,56,30.34,30.03,6,3,10,0.00
2013-3-27,44,34,27,27,24,18,85,68,50,30.42,30.33,5,3,9,0.00
2013-3-28,52,38,28,26,22,18,79,54,27,30.45,30.35,4,2,10,0.00
2013-3-29,55,41,35,38,27,20,97,61,27,30.45,30.34,5,1,6,0.04
2013-3-30,60,48,38,45,40,37,98,76,47,30.35,30.15,5,1,7,0.11
2013-3-31,52,47,46,48,45,40,98,92,63,30.16,29.98,4,1,6,0.19
2013-4-4,36,35,33,36,34,32,98,97,95,30.21,30.09,1,0,5,0.70
2013-4-5,57,45,36,42,36,29,98,76,35,30.21,30.06,6,2,11,0.00
2013-4-6,66,53,41,37,33,31,71,48,30,30.32,30.20,5,2,12,0.00
2013-4-7,66,56,45,45,39,31,69,54,44,30.27,30.15,8,4,13,0.00
2013-4-8,69,57,52,51,46,44,76,66,49,30.21,30.15,7,2,10,0.00
2013-4-9,80,70,57,56,54,50,78,57,42,30.25,30.13,8,4,12,0.00
2013-4-10,82,70,60,57,54,52,76,58,37,30.14,29.97,8,3,12,0.00
2013-4-11,73,65,58,62,56,51,96,73,51,30.00,29.73,9,4,14,0.72
2013-4-12,69,59,48,62,51,32,97,76,26,29.92,29.66,9,3,16,0.76
2013-4-13,71,56,44,41,36,28,77,52,20,30.13,29.90,6,2,7,0.00
2013-4-14,68,57,50,48,39,32,93,53,33,30.17,30.03,6,2,9,0.03
2013-4-15,63,54,49,56,52,48,99,93,74,30.29,30.03,2,0,5,0.22
2013-4-16,76,63,54,59,56,53,98,79,52,30.36,30.24,5,2,7,0.00
2013-4-17,74,63,58,61,58,55,95,82,63,30.31,30.18,5,1,7,0.08
2013-4-18,72,64,57,60,57,54,96,79,54,30.18,29.98,6,2,10,0.01
2013-4-19,63,57,41,61,55,36,97,93,80,29.99,29.77,10,5,28,0.54
2013-4-20,58,45,35,35,30,25,79,57,34,30.40,29.99,5,3,9,0.00
2013-4-21,61,49,40,38,32,27,74,52,35,30.53,30.40,4,1,7,0.00
2013-4-22,64,50,41,39,37,31,84,63,35,30.49,30.29,3,1,6,0.00
2013-4-23,70,55,42,46,37,28,67,52,36,30.36,30.17,5,2,9,0.00
2013-4-24,67,58,48,57,50,45,93,74,53,30.20,30.07,7,3,11,0.02
2013-4-25,66,51,39,46,32,20,94,56,18,30.42,30.16,5,2,10,0.00
2013-4-26,68,55,44,38,33,27,58,44,31,30.51,30.37,4,1,7,0.00
2013-4-27,55,51,48,50,45,36,98,81,48,30.45,30.33,2,0,5,0.80
2013-4-28,50,48,45,50,48,44,99,98,97,30.34,30.12,3,1,8,1.57
2013-4-29,69,58,50,58,53,49,99,85,59,30.18,30.02,2,0,5,0.03
2013-4-30,75,61,54,57,54,47,98,79,41,30.22,30.05,3,1,8,0.00
2013-5-1,63,57,54,55,52,51,95,84,67,30.34,30.21,2,0,5,0.00
2013-5-2,60,54,52,56,52,50,99,95,83,30.36,30.29,2,0,5,0.05
2013-5-3,55,51,50,52,51,50,99,98,85,30.31,30.23,1,0,6,0.02
2013-5-4,48,47,45,48,46,41,99,96,84,30.16,30.07,2,1,6,0.42
2013-5-5,49,46,44,48,46,43,99,99,98,30.10,29.92,3,1,8,3.48
2013-5-6,64,54,46,52,47,42,100,80,47,29.98,29.89,4,1,9,0.10
2013-5-7,66,52,44,51,45,35,97,81,36,30.05,29.95,3,0,5,0.14
2013-5-8,66,56,49,56,52,48,97,85,61,30.14,30.01,4,0,7,0.02
2013-5-9,72,61,52,61,54,49,95,78,55,30.20,30.10,2,0,5,0.32
2013-5-10,74,64,57,60,56,53,89,74,54,30.17,30.03,5,2,19,0.02
2013-5-11,71,62,56,62,57,53,93,83,68,29.98,29.87,3,0,5,0.20
2013-5-12,62,54,47,53,41,30,93,65,38,30.16,29.94,5,2,8,0.00
2013-5-13,61,50,42,34,30,23,68,48,24,30.30,30.16,4,2,8,0.00
2013-5-14,71,57,42,51,40,30,74,54,33,30.34,30.16,4,1,5,0.00
2013-5-15,84,70,58,58,53,48,76,55,33,30.19,30.02,3,1,5,0.00
2013-5-16,77,68,61,57,53,48,72,60,41,30.09,30.01,3,0,6,0.00
2013-5-17,78,68,60,60,56,52,84,67,42,30.16,30.06,3,1,8,0.00
2013-5-18,65,62,59,62,60,55,98,92,71,30.15,30.09,3,1,11,0.89
2013-5-19,74,64,60,67,62,60,99,93,75,30.17,30.07,3,0,6,0.23
2013-5-20,79,64,59,65,61,59,99,92,58,30.18,30.11,2,0,5,0.01
2013-5-21,81,72,62,67,63,60,97,75,56,30.12,30.00,2,0,5,0.00
2013-5-22,79,67,61,67,62,58,98,84,57,30.06,29.92,4,1,9,0.37
2013-5-23,77,66,58,64,59,53,99,82,51,30.00,29.91,4,1,5,0.01
2013-5-24,64,58,52,55,46,38,89,66,42,30.31,29.94,6,2,9,0.00
2013-5-25,73,58,47,45,39,36,70,51,28,30.41,30.28,4,2,8,0.00
2013-5-26,71,60,48,52,45,33,87,58,41,30.35,30.25,3,0,5,0.04
2013-5-27,79,65,55,59,53,47,84,67,46,30.34,30.20,3,1,5,0.00
2013-5-28,80,69,62,63,58,56,87,69,45,30.26,30.18,3,1,7,0.00
2013-5-29,82,70,60,64,60,56,93,73,45,30.28,30.19,3,1,6,0.00
2013-5-30,80,69,60,64,60,58,95,76,53,30.32,30.21,3,0,5,0.00
2013-5-31,78,70,62,62,60,58,96,73,52,30.26,30.16,3,1,7,0.00
2013-6-1,78,70,64,64,62,59,92,74,54,30.17,30.06,4,1,7,0.01
2013-6-2,68,64,62,67,63,61,99,96,88,30.09,29.97,3,1,6,0.51
2013-6-3,76,67,61,68,62,60,99,86,62,30.03,29.93,2,0,5,0.01
2013-6-4,79,68,60,65,61,57,94,78,53,30.13,30.02,2,0,5,0.00
2013-6-5,78,68,63,67,64,62,98,88,68,30.14,30.00,2,0,7,0.50
2013-6-6,75,67,62,68,64,62,99,91,77,30.04,29.83,2,0,9,0.15
2013-6-7,69,64,61,67,63,61,100,98,93,29.89,29.74,2,0,5,2.09
2013-6-8,78,66,58,67,63,58,99,89,63,30.15,29.89,2,0,5,0.13
2013-6-9,78,67,62,70,64,60,99,92,71,30.20,30.08,3,0,5,2.22
2013-6-10,75,67,62,66,63,57,99,89,56,30.09,29.96,5,1,8,0.62
2013-6-11,81,70,61,67,63,60,98,80,54,30.08,30.00,2,0,5,0.04
2013-6-12,87,75,65,74,66,59,87,74,50,30.09,29.97,2,0,5,0.00
2013-6-13,86,73,66,67,63,59,92,72,42,29.98,29.75,5,2,6,0.17
2013-6-14,74,66,59,62,55,52,88,69,48,30.13,29.85,5,2,9,0.00
2013-6-15,80,68,57,63,58,52,90,71,49,30.22,30.11,3,0,5,0.00
2013-6-16,81,70,61,66,62,58,91,75,54,30.19,30.07,2,0,5,0.00
2013-6-17,76,69,64,70,66,62,97,87,74,30.10,29.99,2,0,5,0.14
2013-6-18,80,67,62,70,65,59,98,91,61,30.01,29.87,3,0,5,0.02
2013-6-19,78,68,61,66,61,58,90,80,62,30.18,29.99,3,0,5,0.00
2013-6-20,79,69,62,66,63,60,95,82,63,30.28,30.17,2,0,5,0.00
2013-6-21,81,69,62,64,62,60,96,79,53,30.32,30.22,2,0,5,0.00
2013-6-22,82,70,60,62,59,56,96,73,42,30.31,30.17,2,0,5,0.00
2013-6-23,81,70,63,69,63,59,97,81,60,30.27,30.17,1,0,5,0.14
2013-6-24,81,70,62,71,66,62,99,89,65,30.28,30.16,2,0,5,0.14
2013-6-25,83,70,64,71,66,63,98,88,60,30.21,30.08,1,0,5,0.05
2013-6-26,83,71,63,72,67,62,97,88,62,30.11,29.98,1,0,5,0.07
2013-6-27,84,72,62,72,67,60,97,84,60,30.01,29.82,4,0,5,0.11
2013-6-28,84,73,66,68,65,63,97,79,54,29.88,29.68,3,1,6,0.06
2013-6-29,81,70,61,67,62,57,98,79,54,29.77,29.68,2,0,5,0.01
2013-6-30,81,69,61,67,62,57,92,77,47,29.87,29.75,1,0,5,0.06
2013-7-1,79,68,63,69,64,61,99,89,62,30.01,29.85,2,0,8,2.22
2013-7-2,81,69,63,69,65,62,99,90,62,30.18,30.00,2,1,5,0.12
2013-7-3,72,66,60,71,65,60,99,98,93,30.28,30.15,4,0,5,3.01
2013-7-4,70,64,60,70,64,60,100,100,99,30.30,30.23,3,0,7,1.94
2013-7-5,69,66,64,67,65,64,100,99,90,30.31,30.24,3,1,8,0.13
2013-7-6,77,68,64,71,67,64,100,95,76,30.27,30.17,3,1,5,1.54
2013-7-7,77,71,66,70,68,66,100,91,78,30.23,30.13,2,1,6,0.10
2013-7-9,87,77,69,72,69,64,97,78,48,30.23,30.11,2,0,5,0.00
2013-7-10,82,70,65,73,67,64,99,92,67,30.18,30.00,5,0,6,1.47
2013-7-11,76,69,65,72,68,64,100,94,82,30.04,29.94,1,0,5,0.00
2013-7-12,79,69,64,69,65,60,99,89,67,30.06,29.94,2,0,5,0.02
2013-7-13,73,66,61,67,64,60,98,92,80,30.18,30.06,1,0,5,0.00
2013-7-14,70,67,64,70,66,63,100,99,93,30.35,30.17,3,0,5,1.24
2013-7-15,81,71,66,71,67,66,100,89,65,30.40,30.33,1,0,5,0.00
2013-7-16,88,75,67,72,68,66,98,81,54,30.39,30.29,1,0,5,0.00
2013-7-17,86,73,68,72,69,66,98,87,58,30.33,30.20,2,0,5,0.16
2013-7-18,86,74,64,74,68,63,98,84,62,30.27,30.13,1,0,5,0.00
2013-7-19,86,74,66,73,68,65,99,85,56,30.17,30.03,1,0,5,0.01
2013-7-20,82,71,67,73,68,66,98,91,69,30.09,29.99,1,0,5,0.09
2013-7-21,81,70,66,72,68,65,99,94,72,30.08,30.01,1,0,5,0.61
2013-7-22,78,73,66,74,69,63,99,90,80,30.05,29.90,2,0,7,0.44
2013-7-23,82,71,64,70,66,62,97,85,59,29.98,29.85,2,0,5,0.09
2013-7-24,82,71,65,72,66,64,99,86,61,29.92,29.84,2,1,5,0.01
2013-7-25,83,71,63,68,64,60,97,80,46,30.09,29.91,2,0,5,0.00
2013-7-26,81,70,62,69,64,60,97,84,62,30.15,30.06,2,0,6,0.50
2013-7-27,77,69,64,71,66,64,99,91,70,30.10,29.94,2,0,5,0.49
2013-7-28,82,70,64,69,65,61,99,86,62,30.09,29.96,1,0,5,0.00
2013-7-29,79,68,60,65,60,56,97,77,54,30.26,30.09,1,0,5,0.00
2013-7-30,79,69,60,70,62,54,94,79,66,30.30,30.20,2,0,5,0.00
2013-7-31,75,68,64,69,66,63,99,94,81,30.24,30.03,1,0,5,0.39
2013-8-1,78,70,65,72,67,64,99,91,72,30.05,29.97,2,0,5,0.36
2013-8-2,81,71,64,70,65,62,94,82,64,30.10,30.01,1,0,5,0.00
2013-8-3,80,71,66,69,66,62,97,83,65,30.10,30.02,1,0,5,0.00
2013-8-4,77,71,65,68,65,60,93,82,70,30.10,30.03,3,1,5,0.00
2013-8-5,79,70,62,69,64,60,94,82,64,30.14,30.03,2,0,6,0.00
2013-8-6,82,71,66,71,67,64,98,88,62,30.10,30.01,2,0,5,0.06
2013-8-7,69,68,67,69,67,66,99,99,98,30.12,30.06,2,0,5,1.02
2013-8-8,79,69,66,73,68,65,100,96,79,30.13,30.07,1,0,5,0.54
2013-8-9,81,72,67,74,69,66,99,92,74,30.15,30.08,1,0,5,0.89
2013-8-10,78,70,66,74,69,66,100,96,83,30.19,30.12,2,0,5,2.91
2013-8-11,80,72,66,73,70,65,100,93,76,30.22,30.13,1,0,5,0.35
2013-8-12,84,71,66,73,68,65,99,93,68,30.17,30.04,5,0,5,1.30
2013-8-13,78,69,66,73,68,64,100,95,77,30.05,29.90,3,0,5,0.13
2013-8-14,75,66,62,64,60,56,96,84,61,30.14,29.96,3,1,5,0.00
2013-8-15,66,61,56,60,57,55,98,89,76,30.22,30.13,1,0,5,0.01
2013-8-16,71,62,56,62,57,54,97,87,68,30.24,30.17,1,0,5,0.00
2013-8-17,65,60,57,61,58,54,99,93,79,30.26,30.20,1,0,5,0.19
2013-8-18,74,64,59,69,63,59,100,95,79,30.32,30.21,2,0,5,0.15
2013-8-19,70,65,62,68,64,62,100,97,88,30.27,30.17,1,0,5,1.62
2013-8-20,77,68,63,70,66,63,100,94,76,30.28,30.18,1,0,5,0.00
2013-8-21,72,68,65,69,67,65,100,97,89,30.30,30.20,1,0,5,0.03
2013-8-22,80,74,67,71,68,65,94,83,68,30.24,30.11,1,0,5,0.01
2013-8-23,81,70,64,72,66,62,97,86,64,30.15,30.04,2,0,5,0.00
2013-8-24,78,68,62,65,62,57,98,84,57,30.37,30.14,2,0,5,0.00
2013-8-25,75,66,58,62,58,53,93,77,58,30.46,30.35,1,0,5,0.00
2013-8-26,77,66,57,66,60,55,97,81,61,30.41,30.21,2,0,5,0.00
2013-8-27,79,68,61,69,63,59,94,86,69,30.24,30.09,3,0,5,0.00
2013-8-28,82,72,66,72,67,63,93,83,67,30.12,30.01,2,1,5,0.00
2013-8-29,83,74,69,73,69,65,91,82,67,30.04,29.96,3,1,6,0.00
2013-8-30,79,70,67,72,68,67,99,94,78,30.10,30.00,1,0,5,0.06
2013-8-31,84,71,66,73,68,65,99,91,66,30.04,29.94,5,0,8,0.06
2013-9-1,84,72,66,73,68,64,98,88,63,29.98,29.85,5,0,5,0.26
2013-9-2,81,70,65,72,67,64,98,91,73,29.99,29.90,2,0,5,0.01
2013-9-3,78,69,60,69,64,59,98,86,68,30.07,29.91,4,1,6,0.20
2013-9-4,81,70,60,69,64,59,98,83,62,30.18,30.06,1,0,5,0.01
2013-9-5,80,69,63,66,61,54,96,77,44,30.21,30.14,2,0,5,0.00
2013-9-6,78,68,60,64,60,57,93,77,58,30.26,30.14,2,0,5,0.00
2013-9-7,80,67,60,67,62,59,96,85,62,30.19,30.07,1,0,5,0.00
2013-9-8,77,69,62,69,65,60,98,87,72,30.09,30.02,0,0,5,0.00
2013-9-9,82,71,64,69,66,63,98,85,63,30.21,30.09,0,0,5,0.00
2013-9-10,84,72,64,69,65,62,97,81,49,30.31,30.20,0,0,5,0.00
2013-9-11,82,71,64,70,66,62,97,86,64,30.30,30.17,0,0,5,0.00
2013-9-12,79,70,63,70,66,61,97,88,74,30.17,29.93,3,0,5,0.03
2013-9-13,74,65,58,63,59,50,98,80,59,29.99,29.89,3,1,5,0.01
2013-9-14,72,60,52,58,52,49,92,77,53,30.20,29.99,2,1,5,0.00
2013-9-15,74,63,56,63,57,53,93,82,59,30.30,30.19,3,0,6,0.00
2013-9-16,77,66,59,65,60,57,96,82,61,30.24,30.16,0,0,5,0.00
2013-9-17,68,62,58,60,56,54,92,84,66,30.35,30.24,0,0,5,0.00
2013-9-18,64,59,55,59,56,52,97,90,80,30.36,30.26,0,0,5,0.01
2013-9-19,76,65,58,67,62,58,99,90,70,30.28,30.16,0,0,5,0.00
2013-9-20,78,68,60,67,63,59,99,86,60,30.17,29.99,0,0,5,0.01
2013-9-21,66,62,58,64,61,58,99,95,86,30.00,29.78,3,1,6,1.19
2013-9-22,69,60,54,58,55,52,99,83,59,30.01,29.83,3,2,7,0.01
2013-9-23,72,61,55,61,56,52,92,82,62,30.14,30.00,1,0,6,0.00
2013-9-24,68,60,55,61,57,54,98,92,75,30.16,30.00,1,0,5,0.00
2013-9-25,61,58,56,60,58,55,99,98,95,30.01,29.94,1,0,5,1.29
2013-9-26,68,59,55,62,57,54,100,94,81,30.14,29.98,2,0,5,0.01
2013-9-27,71,61,53,60,56,51,96,83,61,30.26,30.14,2,0,5,0.00
2013-9-28,66,59,54,58,55,52,95,85,70,30.33,30.23,1,0,5,0.00
2013-9-29,68,58,51,58,53,49,94,84,62,30.26,30.12,1,0,5,0.00
2013-9-30,71,60,53,59,56,53,100,86,57,30.19,30.09,1,0,5,0.00
2013-10-1,74,62,52,62,58,51,99,86,62,30.25,30.14,1,0,5,0.00
2013-10-2,75,65,56,63,59,55,98,83,56,30.26,30.16,2,0,5,0.01
2013-10-3,76,66,59,65,60,57,96,84,63,30.22,30.14,2,0,5,0.00
2013-10-4,78,67,59,65,61,58,96,82,54,30.25,30.16,0,0,5,0.00
2013-10-5,80,68,60,66,62,59,97,82,56,30.22,30.10,2,0,5,0.00
2013-10-6,76,68,63,64,62,60,91,82,64,30.12,29.94,3,1,8,0.02
2013-10-7,64,57,52,62,55,48,99,91,74,30.12,29.85,4,2,7,1.55
2013-10-8,66,55,50,53,48,45,89,78,55,30.30,30.12,4,1,5,0.00
2013-10-9,70,56,45,57,48,41,93,75,53,30.34,30.22,1,0,5,0.00
2013-10-10,68,58,48,55,50,44,97,77,57,30.23,30.12,3,1,7,0.00
2013-10-11,71,63,54,56,53,50,88,72,48,30.14,30.04,3,1,6,0.00
2013-10-12,71,62,55,60,56,52,92,81,66,30.18,30.07,2,0,5,0.00
2013-10-13,69,61,58,62,59,57,98,92,76,30.29,30.17,1,0,5,0.31
2013-10-14,66,60,56,62,58,55,99,95,81,30.31,30.23,0,0,5,0.02
2013-10-15,64,57,54,58,55,54,99,94,80,30.28,30.15,1,0,5,0.05
2013-10-16,66,59,53,59,55,51,95,88,72,30.18,30.05,0,0,5,0.00
2013-10-17,65,60,53,63,59,52,99,96,91,30.06,29.93,0,0,5,0.04
2013-10-18,66,55,47,57,51,45,97,86,65,30.13,30.01,3,1,5,0.00
2013-10-19,61,55,48,56,52,46,98,90,75,30.06,29.93,2,0,5,0.00
2013-10-20,62,50,40,48,43,38,97,79,47,30.19,30.04,2,1,5,0.01
2013-10-21,66,53,45,53,48,42,93,82,60,30.23,30.09,2,0,7,0.00
2013-10-22,64,56,51,52,50,47,95,82,63,30.11,29.90,2,0,5,0.01
2013-10-23,54,46,35,47,37,29,94,71,46,30.14,29.83,5,2,7,0.00
2013-10-24,51,41,32,39,33,29,92,76,55,30.30,30.14,3,0,5,0.00
2013-10-25,45,37,29,37,28,23,90,71,46,30.50,30.30,5,2,7,0.00
2013-10-26,55,40,29,37,31,25,87,70,41,30.49,30.22,2,0,5,0.00
2013-10-27,62,52,44,49,44,36,87,73,55,30.25,30.18,3,0,5,0.00
2013-10-28,57,53,50,55,51,48,98,92,84,30.36,30.20,0,0,5,0.14
2013-10-29,64,56,50,55,51,49,98,84,58,30.44,30.34,2,0,5,0.00
2013-10-30,72,61,55,57,54,50,89,77,55,30.37,30.24,1,0,5,0.00
2013-10-31,62,59,57,59,55,52,97,86,77,30.24,29.91,5,2,11,0.06
2013-11-1,74,62,53,60,55,46,97,81,44,29.92,29.71,9,2,11,0.10
2013-11-2,58,50,44,46,40,35,88,69,54,30.12,29.81,7,2,8,0.00
2013-11-3,55,46,40,37,35,33,86,68,47,30.47,30.10,4,1,6,0.01
2013-11-4,53,44,38,34,32,30,78,63,44,30.60,30.46,3,1,5,0.00
2013-11-5,55,44,36,44,33,28,87,67,36,30.65,30.54,2,0,6,0.00
2013-11-6,64,53,46,52,49,44,99,88,64,30.54,30.23,3,0,6,0.03
2013-11-7,56,50,38,53,44,29,98,82,61,30.24,30.10,6,2,8,0.02
2013-11-8,52,41,35,29,23,17,73,51,25,30.44,30.24,5,2,9,0.00
2013-11-9,55,45,38,33,27,21,61,50,38,30.47,30.33,3,1,7,0.00
2013-11-10,64,50,42,38,30,24,60,48,23,30.39,30.28,6,1,9,0.00
2013-11-11,59,48,37,32,28,24,63,48,34,30.42,30.26,4,1,9,0.00
2013-11-12,52,39,22,38,26,14,83,60,36,30.57,30.18,6,3,11,0.00
2013-11-13,43,30,21,18,14,10,77,56,26,30.70,30.54,6,3,11,0.00
2013-11-14,55,41,29,22,17,14,60,41,20,30.63,30.44,4,1,8,0.00
2013-11-15,49,45,39,48,36,10,99,74,29,30.44,30.30,5,1,6,0.13
2013-11-16,59,51,47,55,50,46,99,97,85,30.37,30.27,2,1,5,0.02
2013-11-17,58,55,52,58,54,52,100,99,96,30.30,29.98,4,2,11,0.49
2013-11-18,62,54,43,59,42,28,100,67,30,30.10,29.95,6,3,10,0.03
2013-11-19,51,42,36,32,25,19,68,51,30,30.35,30.10,5,2,13,0.00
2013-11-20,48,39,32,30,27,25,80,63,43,30.57,30.35,4,1,7,0.00
2013-11-21,48,43,38,47,40,30,99,89,72,30.61,30.50,3,1,5,0.24
2013-11-22,63,54,46,59,53,46,100,96,86,30.53,30.23,4,1,6,0.05
2013-11-23,54,44,31,53,40,22,100,86,52,30.32,30.18,7,2,18,0.00
2013-11-24,33,26,20,22,10,3,77,53,30,30.65,30.32,5,3,10,0.00
2013-11-25,36,28,22,24,10,5,80,47,31,30.66,30.46,4,2,8,0.00
2013-11-26,44,38,28,44,37,21,99,96,73,30.47,29.79,4,1,6,2.31
2013-11-27,42,29,21,42,26,15,99,89,77,30.32,29.72,10,5,15,0.08
2013-11-28,45,31,19,26,18,4,87,64,22,30.61,30.33,4,1,6,0.04
2013-11-29,52,39,30,26,22,18,75,53,30,30.68,30.59,3,1,6,0.00
2013-11-30,44,37,28,26,24,23,79,60,47,30.71,30.49,3,2,9,0.00
2013-12-1,56,42,33,37,31,22,79,64,48,30.49,30.13,2,1,5,0.00
2013-12-2,53,44,37,43,37,32,92,76,60,30.12,29.92,2,0,5,0.00
2013-12-3,53,48,43,48,46,42,99,93,81,30.05,29.95,5,1,7,0.01
2013-12-4,62,53,48,56,52,48,100,95,78,30.15,30.04,5,2,7,0.01
2013-12-5,65,60,56,63,58,56,99,96,84,30.17,30.05,6,2,12,0.37
2013-12-6,66,62,49,62,60,49,99,94,84,30.09,29.99,9,5,18,0.40
2013-12-7,51,43,38,50,41,37,100,93,80,30.47,30.06,6,2,9,0.02
2013-12-8,40,35,32,40,35,32,99,99,98,30.47,30.34,3,2,7,0.45
2013-12-9,51,45,33,51,45,32,100,100,98,30.34,30.13,8,2,12,0.45
2013-12-10,48,38,26,48,35,24,99,89,68,30.43,30.00,7,2,11,0.22
2013-12-11,48,35,25,25,21,16,91,59,32,30.59,30.43,4,1,8,0.00
2013-12-12,37,30,24,23,18,10,88,64,33,30.54,30.43,5,2,9,0.00
2013-12-13,48,36,26,23,17,9,55,47,36,30.54,30.39,3,1,6,0.00
2013-12-14,42,38,34,41,33,22,100,84,50,30.40,29.92,4,1,6,0.82
2013-12-15,43,34,27,43,32,26,99,93,79,30.25,29.88,5,3,8,0.00
2013-12-16,54,39,27,33,28,24,95,67,32,30.35,30.25,6,2,7,0.01
2013-12-17,59,46,37,35,29,22,68,53,32,30.28,30.04,8,3,12,0.00
2013-12-18,45,35,26,22,16,9,80,49,25,30.43,30.14,5,2,12,0.00
2013-12-19,60,47,37,28,22,11,44,37,27,30.45,30.30,7,2,10,0.00
2013-12-20,61,52,45,49,33,20,83,51,33,30.31,30.20,7,3,11,0.00
2013-12-21,62,56,53,61,55,49,100,95,82,30.23,30.04,8,4,14,0.68
2013-12-22,63,57,54,61,57,54,100,97,89,30.13,29.99,10,4,20,2.18
2013-12-23,55,45,32,55,44,30,100,96,88,30.29,30.08,5,2,7,0.21
2013-12-24,33,28,22,30,23,16,94,82,64,30.56,30.28,5,2,10,0.01
2013-12-25,36,27,20,18,15,11,84,63,43,30.65,30.50,4,1,6,0.00
2013-12-26,46,34,25,27,23,16,74,63,45,30.53,30.42,5,1,10,0.00
2013-12-27,49,38,30,30,25,23,82,62,41,30.59,30.49,3,1,6,0.00
2013-12-28,49,40,34,41,29,21,95,66,36,30.54,30.21,6,1,7,0.28
2013-12-29,51,41,36,47,39,35,100,94,80,30.20,29.93,5,2,7,0.70
2013-12-30,40,37,32,38,35,31,98,94,89,30.28,30.09,4,1,5,0.00
2013-12-31,38,32,28,32,25,20,98,76,54,30.52,30.26,5,2,7,0.00
2014-1-1,43,36,30,31,25,17,83,65,49,30.52,30.26,6,2,9,0.00
2014-1-2,46,36,19,45,33,12,98,86,71,30.26,29.78,8,2,14,0.04